Time;durP1;ratioP1;P1;durP2;ratioP2;P2;SDS_P1;SDS_P2;PMS_P1;PMS_P2;Temp;Humidity;BMP_temperature;BMP_pressure;BME280_temperature;BME280_humidity;BME280_pressure;Samples;Min_cycle;Max_cycle;Signal;HPM_P1;HPM_P2
2022/11/01 02:45:30;;;;;;;11.68;9.25;;;;;;;;;;1847528;77;22171;-75
2022/11/01 02:47:50;;;;;;;15.85;11.10;;;;;;;;;;1804188;78;20910;-75
2022/11/01 02:50:18;;;;;;;20.15;11.93;;;;;;;;;;1807603;78;21153;-76
2022/11/01 02:52:46;;;;;;;21.23;12.60;;;;;;;;;;1807280;79;20973;-75
2022/11/01 02:55:28;;;;;;;25.62;14.98;;;;;;;;;;1807302;78;21480;-75
2022/11/01 02:57:57;;;;;;;38.08;18.92;;;;;;;;;;1806999;79;20985;-75
2022/11/01 03:00:27;;;;;;;27.02;15.70;;;;;;;;;;1807443;78;20922;-75
2022/11/01 03:03:13;;;;;;;31.20;17.92;;;;;;;;;;1807455;79;21516;-75
2022/11/01 03:06:03;;;;;;;22.58;15.32;;;;;;;;;;1807769;79;21409;-75
2022/11/01 03:08:54;;;;;;;31.37;19.02;;;;;;;;;;1807246;78;20898;-75
2022/11/01 03:11:23;;;;;;;26.48;15.32;;;;;;;;;;1807181;79;20993;-76
2022/11/01 03:14:19;;;;;;;25.68;14.73;;;;;;;;;;1807492;78;20955;-75
2022/11/01 03:16:59;;;;;;;17.80;11.48;;;;;;;;;;1807413;78;20997;-76
2022/11/01 03:19:50;;;;;;;19.60;10.93;;;;;;;;;;1807195;79;20923;-76
2022/11/01 03:22:29;;;;;;;17.32;10.88;;;;;;;;;;1806897;78;20974;-75
2022/11/01 03:28:10;;;;;;;19.57;13.22;;;;;;;;;;1829243;77;20829;-75
2022/11/01 03:30:37;;;;;;;19.95;11.88;;;;;;;;;;1852915;77;21502;-75
2022/11/01 03:33:04;;;;;;;21.73;10.85;;;;;;;;;;1852942;77;21482;-75
2022/11/01 03:35:36;;;;;;;18.85;10.75;;;;;;;;;;1824847;77;20908;-76
2022/11/01 03:38:05;;;;;;;18.82;11.35;;;;;;;;;;1852983;77;20911;-76
2022/11/01 03:40:32;;;;;;;19.82;10.23;;;;;;;;;;1853191;77;20963;-75
2022/11/01 03:43:01;;;;;;;16.62;10.50;;;;;;;;;;1853281;77;21117;-76
2022/11/01 03:45:28;;;;;;;14.60;9.83;;;;;;;;;;1830266;77;21020;-75
2022/11/01 03:47:56;;;;;;;17.42;11.48;;;;;;;;;;1773514;80;21591;-75
2022/11/01 03:50:24;;;;;;;22.42;11.73;;;;;;;;;;1790953;79;20990;-76
2022/11/01 03:52:52;;;;;;;14.73;11.33;;;;;;;;;;1791033;79;20870;-75
2022/11/01 03:55:19;;;;;;;15.55;9.10;;;;;;;;;;1790487;80;21234;-74
2022/11/01 03:57:53;;;;;;;14.03;9.63;;;;;;;;;;1790295;80;21039;-74
2022/11/01 04:00:23;;;;;;;12.88;8.35;;;;;;;;;;1790369;80;20926;-74
2022/11/01 04:02:51;;;;;;;14.80;9.23;;;;;;;;;;1790350;79;21104;-73
2022/11/01 04:05:18;;;;;;;15.75;8.20;;;;;;;;;;1790619;79;20890;-74
2022/11/01 04:07:44;;;;;;;12.70;8.10;;;;;;;;;;1790428;80;21539;-74
2022/11/01 04:10:11;;;;;;;10.93;8.43;;;;;;;;;;1772338;80;20894;-74
2022/11/01 04:12:39;;;;;;;11.45;6.75;;;;;;;;;;1790378;80;21472;-75
2022/11/01 04:20:58;;;;;;;11.05;6.58;;;;;;;;;;1790616;79;21583;-76
2022/11/01 04:23:24;;;;;;;19.70;9.23;;;;;;;;;;1772389;80;20989;-73
2022/11/01 04:25:51;;;;;;;14.07;8.88;;;;;;;;;;1790768;80;20828;-74
2022/11/01 04:28:17;;;;;;;15.08;10.38;;;;;;;;;;1820817;77;21024;-74
2022/11/01 04:30:43;;;;;;;15.95;9.18;;;;;;;;;;1844115;77;21396;-73
2022/11/01 04:33:10;;;;;;;15.60;9.65;;;;;;;;;;1843666;77;21138;-73
2022/11/01 04:35:37;;;;;;;8.23;7.12;;;;;;;;;;1843561;77;20948;-74
